sensor_id;sensor_type;location;lat;lon;timestamp;temperature;humidity
32502;DHT22;18952;52.516;13.460;2023-02-11T00:01:25;2.20;99.90
32502;DHT22;18952;52.516;13.460;2023-02-11T00:03:53;2.20;99.90
32502;DHT22;18952;52.516;13.460;2023-02-11T00:06:21;2.10;99.90
32502;DHT22;18952;52.516;13.460;2023-02-11T00:08:48;2.10;99.90
32502;DHT22;18952;52.516;13.460;2023-02-11T00:11:17;2.10;99.90
32502;DHT22;18952;52.516;13.460;2023-02-11T00:13:44;2.20;99.90
32502;DHT22;18952;52.516;13.460;2023-02-11T00:16:16;2.20;99.90
32502;DHT22;18952;52.516;13.460;2023-02-11T00:18:43;2.20;99.90
32502;DHT22;18952;52.516;13.460;2023-02-11T00:21:16;2.20;99.90
32502;DHT22;18952;52.516;13.460;2023-02-11T00:23:44;2.20;99.90
32502;DHT22;18952;52.516;13.460;2023-02-11T00:26:13;2.20;99.90
32502;DHT22;18952;52.516;13.460;2023-02-11T00:28:40;2.20;99.90
32502;DHT22;18952;52.516;13.460;2023-02-11T00:31:07;2.30;99.90
32502;DHT22;18952;52.516;13.460;2023-02-11T00:33:34;2.30;99.90
32502;DHT22;18952;52.516;13.460;2023-02-11T00:36:08;2.20;99.90
32502;DHT22;18952;52.516;13.460;2023-02-11T00:38:35;2.30;99.90
32502;DHT22;18952;52.516;13.460;2023-02-11T00:41:02;2.30;99.90
32502;DHT22;18952;52.516;13.460;2023-02-11T00:43:29;2.30;99.90
32502;DHT22;18952;52.516;13.460;2023-02-11T00:45:55;2.40;99.90
32502;DHT22;18952;52.516;13.460;2023-02-11T00:48:22;2.40;99.90
32502;DHT22;18952;52.516;13.460;2023-02-11T00:50:49;2.40;99.90
32502;DHT22;18952;52.516;13.460;2023-02-11T00:53:16;2.50;99.90
32502;DHT22;18952;52.516;13.460;2023-02-11T00:55:43;2.50;99.90
32502;DHT22;18952;52.516;13.460;2023-02-11T00:58:09;2.50;99.90
32502;DHT22;18952;52.516;13.460;2023-02-11T01:00:36;2.60;99.90
32502;DHT22;18952;52.516;13.460;2023-02-11T01:03:03;2.60;99.90
32502;DHT22;18952;52.516;13.460;2023-02-11T01:05:30;2.60;99.90
32502;DHT22;18952;52.516;13.460;2023-02-11T01:07:56;2.60;99.90
32502;DHT22;18952;52.516;13.460;2023-02-11T01:10:23;2.60;99.90
32502;DHT22;18952;52.516;13.460;2023-02-11T01:12:50;2.70;99.90
32502;DHT22;18952;52.516;13.460;2023-02-11T01:15:19;2.70;99.90
32502;DHT22;18952;52.516;13.460;2023-02-11T01:17:46;2.70;99.90
32502;DHT22;18952;52.516;13.460;2023-02-11T01:20:15;2.70;99.90
32502;DHT22;18952;52.516;13.460;2023-02-11T01:22:42;2.70;99.90
32502;DHT22;18952;52.516;13.460;2023-02-11T01:25:09;2.70;99.90
32502;DHT22;18952;52.516;13.460;2023-02-11T01:27:36;2.70;99.90
32502;DHT22;18952;52.516;13.460;2023-02-11T01:30:04;2.70;99.90
32502;DHT22;18952;52.516;13.460;2023-02-11T01:32:32;2.60;99.90
32502;DHT22;18952;52.516;13.460;2023-02-11T01:34:59;2.70;99.90
32502;DHT22;18952;52.516;13.460;2023-02-11T01:37:26;2.70;99.90
32502;DHT22;18952;52.516;13.460;2023-02-11T01:39:53;2.80;99.90
32502;DHT22;18952;52.516;13.460;2023-02-11T01:42:22;2.80;99.90
32502;DHT22;18952;52.516;13.460;2023-02-11T01:44:51;2.80;99.90
32502;DHT22;18952;52.516;13.460;2023-02-11T01:47:19;2.80;99.90
32502;DHT22;18952;52.516;13.460;2023-02-11T01:49:51;2.90;99.90
32502;DHT22;18952;52.516;13.460;2023-02-11T01:52:33;2.90;99.90
32502;DHT22;18952;52.516;13.460;2023-02-11T01:55:05;2.90;99.90
32502;DHT22;18952;52.516;13.460;2023-02-11T01:57:36;2.90;99.90
32502;DHT22;18952;52.516;13.460;2023-02-11T02:00:13;2.80;99.90
32502;DHT22;18952;52.516;13.460;2023-02-11T02:03:16;2.90;99.90
32502;DHT22;18952;52.516;13.460;2023-02-11T02:06:01;2.90;99.90
32502;DHT22;18952;52.516;13.460;2023-02-11T02:08:39;2.90;99.90
32502;DHT22;18952;52.516;13.460;2023-02-11T02:11:08;3.00;99.90
32502;DHT22;18952;52.516;13.460;2023-02-11T02:13:35;3.00;99.90
32502;DHT22;18952;52.516;13.460;2023-02-11T02:16:09;3.00;99.90
32502;DHT22;18952;52.516;13.460;2023-02-11T02:38:00;3.10;99.90
32502;DHT22;18952;52.516;13.460;2023-02-11T02:40:33;3.20;99.90
32502;DHT22;18952;52.516;13.460;2023-02-11T02:43:02;3.20;99.90
32502;DHT22;18952;52.516;13.460;2023-02-11T02:45:29;3.30;99.90
32502;DHT22;18952;52.516;13.460;2023-02-11T02:47:56;3.30;99.90
32502;DHT22;18952;52.516;13.460;2023-02-11T02:50:30;3.30;99.90
32502;DHT22;18952;52.516;13.460;2023-02-11T02:53:08;3.30;99.90
32502;DHT22;18952;52.516;13.460;2023-02-11T02:55:59;3.40;99.90
32502;DHT22;18952;52.516;13.460;2023-02-11T03:01:17;3.40;99.90
32502;DHT22;18952;52.516;13.460;2023-02-11T03:07:04;3.40;99.90
32502;DHT22;18952;52.516;13.460;2023-02-11T03:09:41;3.40;99.90
32502;DHT22;18952;52.516;13.460;2023-02-11T03:12:11;3.40;99.90
32502;DHT22;18952;52.516;13.460;2023-02-11T03:14:40;3.40;99.90
32502;DHT22;18952;52.516;13.460;2023-02-11T03:17:08;3.50;99.90
32502;DHT22;18952;52.516;13.460;2023-02-11T03:19:41;3.50;99.90
32502;DHT22;18952;52.516;13.460;2023-02-11T03:22:25;3.50;99.90
32502;DHT22;18952;52.516;13.460;2023-02-11T03:24:54;3.50;99.90
32502;DHT22;18952;52.516;13.460;2023-02-11T03:27:42;3.60;99.90
32502;DHT22;18952;52.516;13.460;2023-02-11T03:30:24;3.60;99.90
32502;DHT22;18952;52.516;13.460;2023-02-11T03:33:06;3.60;99.90
32502;DHT22;18952;52.516;13.460;2023-02-11T03:35:49;3.60;99.90
32502;DHT22;18952;52.516;13.460;2023-02-11T03:38:21;3.60;99.90
32502;DHT22;18952;52.516;13.460;2023-02-11T03:40:51;3.60;99.90
32502;DHT22;18952;52.516;13.460;2023-02-11T03:43:21;3.60;99.90
32502;DHT22;18952;52.516;13.460;2023-02-11T03:45:51;3.70;99.90
32502;DHT22;18952;52.516;13.460;2023-02-11T03:48:29;3.70;99.90
32502;DHT22;18952;52.516;13.460;2023-02-11T03:51:00;3.70;99.90
32502;DHT22;18952;52.516;13.460;2023-02-11T03:53:28;3.70;99.90
32502;DHT22;18952;52.516;13.460;2023-02-11T03:55:56;3.70;99.90
32502;DHT22;18952;52.516;13.460;2023-02-11T03:58:24;3.70;99.90
32502;DHT22;18952;52.516;13.460;2023-02-11T04:00:50;3.70;99.90
32502;DHT22;18952;52.516;13.460;2023-02-11T04:03:17;3.70;99.90
32502;DHT22;18952;52.516;13.460;2023-02-11T04:05:44;3.70;99.90
32502;DHT22;18952;52.516;13.460;2023-02-11T04:08:11;3.70;99.90
32502;DHT22;18952;52.516;13.460;2023-02-11T04:10:37;3.70;99.90
32502;DHT22;18952;52.516;13.460;2023-02-11T04:13:04;3.70;99.90
32502;DHT22;18952;52.516;13.460;2023-02-11T04:15:31;3.70;99.90
32502;DHT22;18952;52.516;13.460;2023-02-11T04:17:58;3.70;99.90
32502;DHT22;18952;52.516;13.460;2023-02-11T04:20:24;3.70;99.90
32502;DHT22;18952;52.516;13.460;2023-02-11T04:22:51;3.70;99.90
32502;DHT22;18952;52.516;13.460;2023-02-11T04:25:18;3.70;99.90
32502;DHT22;18952;52.516;13.460;2023-02-11T04:27:44;3.70;99.90
32502;DHT22;18952;52.516;13.460;2023-02-11T04:30:11;3.70;99.90
32502;DHT22;18952;52.516;13.460;2023-02-11T04:32:38;3.80;99.90
32502;DHT22;18952;52.516;13.460;2023-02-11T04:35:06;3.80;99.90
32502;DHT22;18952;52.516;13.460;2023-02-11T04:37:33;3.80;99.90
32502;DHT22;18952;52.516;13.460;2023-02-11T04:40:00;3.70;99.90
32502;DHT22;18952;52.516;13.460;2023-02-11T04:42:27;3.80;99.90
32502;DHT22;18952;52.516;13.460;2023-02-11T04:44:53;3.80;99.90
32502;DHT22;18952;52.516;13.460;2023-02-11T04:47:20;3.80;99.90
32502;DHT22;18952;52.516;13.460;2023-02-11T04:49:47;3.80;99.90
32502;DHT22;18952;52.516;13.460;2023-02-11T04:52:13;3.70;99.90
32502;DHT22;18952;52.516;13.460;2023-02-11T04:54:40;3.70;99.90
32502;DHT22;18952;52.516;13.460;2023-02-11T04:57:07;3.70;99.90
32502;DHT22;18952;52.516;13.460;2023-02-11T04:59:34;3.70;99.90
32502;DHT22;18952;52.516;13.460;2023-02-11T05:02:00;3.70;99.90
32502;DHT22;18952;52.516;13.460;2023-02-11T05:04:27;3.70;99.90
32502;DHT22;18952;52.516;13.460;2023-02-11T05:06:54;3.70;99.90
32502;DHT22;18952;52.516;13.460;2023-02-11T05:09:24;3.70;99.90
32502;DHT22;18952;52.516;13.460;2023-02-11T05:11:50;3.70;99.90
32502;DHT22;18952;52.516;13.460;2023-02-11T05:14:17;3.70;99.90
32502;DHT22;18952;52.516;13.460;2023-02-11T05:16:44;3.70;99.90
32502;DHT22;18952;52.516;13.460;2023-02-11T05:19:11;3.70;99.90
32502;DHT22;18952;52.516;13.460;2023-02-11T05:21:38;3.70;99.90
32502;DHT22;18952;52.516;13.460;2023-02-11T05:24:09;3.70;99.90
32502;DHT22;18952;52.516;13.460;2023-02-11T05:26:36;3.70;99.90
32502;DHT22;18952;52.516;13.460;2023-02-11T05:29:02;3.70;99.90
32502;DHT22;18952;52.516;13.460;2023-02-11T05:31:29;3.70;99.90
32502;DHT22;18952;52.516;13.460;2023-02-11T05:33:56;3.70;99.90
32502;DHT22;18952;52.516;13.460;2023-02-11T05:36:23;3.70;99.90
32502;DHT22;18952;52.516;13.460;2023-02-11T05:38:49;3.70;99.90
32502;DHT22;18952;52.516;13.460;2023-02-11T05:41:16;3.70;99.90
32502;DHT22;18952;52.516;13.460;2023-02-11T05:43:43;3.80;99.90
32502;DHT22;18952;52.516;13.460;2023-02-11T05:46:10;3.70;99.90
32502;DHT22;18952;52.516;13.460;2023-02-11T05:48:36;3.80;99.90
32502;DHT22;18952;52.516;13.460;2023-02-11T05:51:03;3.70;99.90
32502;DHT22;18952;52.516;13.460;2023-02-11T05:53:30;3.80;99.90
32502;DHT22;18952;52.516;13.460;2023-02-11T05:55:57;3.80;99.90
32502;DHT22;18952;52.516;13.460;2023-02-11T05:58:23;3.80;99.90
32502;DHT22;18952;52.516;13.460;2023-02-11T06:00:50;3.80;99.90
32502;DHT22;18952;52.516;13.460;2023-02-11T06:03:17;3.80;99.90
32502;DHT22;18952;52.516;13.460;2023-02-11T06:05:44;3.80;99.90
32502;DHT22;18952;52.516;13.460;2023-02-11T06:08:11;3.70;99.90
32502;DHT22;18952;52.516;13.460;2023-02-11T06:10:38;3.80;99.90
32502;DHT22;18952;52.516;13.460;2023-02-11T06:13:05;3.80;99.90
32502;DHT22;18952;52.516;13.460;2023-02-11T06:15:32;3.80;99.90
32502;DHT22;18952;52.516;13.460;2023-02-11T06:17:58;3.80;99.90
32502;DHT22;18952;52.516;13.460;2023-02-11T06:20:25;3.90;99.90
32502;DHT22;18952;52.516;13.460;2023-02-11T06:22:52;3.90;99.90
32502;DHT22;18952;52.516;13.460;2023-02-11T06:25:18;3.90;99.90
32502;DHT22;18952;52.516;13.460;2023-02-11T06:27:45;3.90;99.90
32502;DHT22;18952;52.516;13.460;2023-02-11T06:30:12;3.90;99.90
32502;DHT22;18952;52.516;13.460;2023-02-11T06:32:39;3.90;99.90
32502;DHT22;18952;52.516;13.460;2023-02-11T06:35:12;3.90;99.90
32502;DHT22;18952;52.516;13.460;2023-02-11T06:37:39;3.90;99.90
32502;DHT22;18952;52.516;13.460;2023-02-11T06:40:07;4.00;99.90
32502;DHT22;18952;52.516;13.460;2023-02-11T06:42:33;4.00;99.90
32502;DHT22;18952;52.516;13.460;2023-02-11T06:45:00;4.00;99.90
32502;DHT22;18952;52.516;13.460;2023-02-11T06:47:27;4.00;99.90
32502;DHT22;18952;52.516;13.460;2023-02-11T06:49:53;4.00;99.90
32502;DHT22;18952;52.516;13.460;2023-02-11T06:52:20;4.10;99.90
32502;DHT22;18952;52.516;13.460;2023-02-11T06:54:47;4.10;99.90
32502;DHT22;18952;52.516;13.460;2023-02-11T06:57:14;4.00;99.90
32502;DHT22;18952;52.516;13.460;2023-02-11T06:59:40;4.10;99.90
32502;DHT22;18952;52.516;13.460;2023-02-11T07:02:10;4.10;99.90
32502;DHT22;18952;52.516;13.460;2023-02-11T07:04:37;4.10;99.90
32502;DHT22;18952;52.516;13.460;2023-02-11T07:07:04;4.10;99.90
32502;DHT22;18952;52.516;13.460;2023-02-11T07:09:31;4.20;99.90
32502;DHT22;18952;52.516;13.460;2023-02-11T07:11:58;4.20;99.90
32502;DHT22;18952;52.516;13.460;2023-02-11T07:14:24;4.20;99.90
32502;DHT22;18952;52.516;13.460;2023-02-11T07:16:51;4.20;99.90
32502;DHT22;18952;52.516;13.460;2023-02-11T07:19:18;4.20;99.90
32502;DHT22;18952;52.516;13.460;2023-02-11T07:21:45;4.20;99.90
32502;DHT22;18952;52.516;13.460;2023-02-11T07:24:12;4.30;99.90
32502;DHT22;18952;52.516;13.460;2023-02-11T07:26:38;4.30;99.90
32502;DHT22;18952;52.516;13.460;2023-02-11T07:29:05;4.30;99.90
32502;DHT22;18952;52.516;13.460;2023-02-11T07:31:32;4.30;99.90
32502;DHT22;18952;52.516;13.460;2023-02-11T07:34:02;4.40;99.90
32502;DHT22;18952;52.516;13.460;2023-02-11T07:36:30;4.40;99.90
32502;DHT22;18952;52.516;13.460;2023-02-11T07:38:57;4.40;99.90
32502;DHT22;18952;52.516;13.460;2023-02-11T07:41:25;4.40;99.90
32502;DHT22;18952;52.516;13.460;2023-02-11T07:43:52;4.40;99.90
32502;DHT22;18952;52.516;13.460;2023-02-11T07:46:24;4.40;99.90
32502;DHT22;18952;52.516;13.460;2023-02-11T07:48:51;4.50;99.90
32502;DHT22;18952;52.516;13.460;2023-02-11T07:51:24;4.50;99.90
32502;DHT22;18952;52.516;13.460;2023-02-11T07:53:51;4.50;99.90
32502;DHT22;18952;52.516;13.460;2023-02-11T07:56:19;4.50;99.90
32502;DHT22;18952;52.516;13.460;2023-02-11T07:58:46;4.50;99.90
32502;DHT22;18952;52.516;13.460;2023-02-11T08:01:17;4.50;99.90
32502;DHT22;18952;52.516;13.460;2023-02-11T08:03:44;4.50;99.90
32502;DHT22;18952;52.516;13.460;2023-02-11T08:06:13;4.50;99.90
32502;DHT22;18952;52.516;13.460;2023-02-11T08:08:40;4.50;99.90
32502;DHT22;18952;52.516;13.460;2023-02-11T08:11:13;4.60;99.90
32502;DHT22;18952;52.516;13.460;2023-02-11T08:13:40;4.60;99.90
32502;DHT22;18952;52.516;13.460;2023-02-11T08:16:07;4.60;99.90
32502;DHT22;18952;52.516;13.460;2023-02-11T08:18:34;4.60;99.90
32502;DHT22;18952;52.516;13.460;2023-02-11T08:21:06;4.70;99.90
32502;DHT22;18952;52.516;13.460;2023-02-11T08:23:36;4.70;99.90
32502;DHT22;18952;52.516;13.460;2023-02-11T08:26:07;4.70;99.90
32502;DHT22;18952;52.516;13.460;2023-02-11T08:28:38;4.80;99.90
32502;DHT22;18952;52.516;13.460;2023-02-11T08:31:07;4.80;99.90
32502;DHT22;18952;52.516;13.460;2023-02-11T08:33:34;4.70;99.90
32502;DHT22;18952;52.516;13.460;2023-02-11T08:36:06;4.80;99.90
32502;DHT22;18952;52.516;13.460;2023-02-11T08:38:33;4.80;99.90
32502;DHT22;18952;52.516;13.460;2023-02-11T08:41:00;4.80;99.90
32502;DHT22;18952;52.516;13.460;2023-02-11T08:43:26;4.80;99.90
32502;DHT22;18952;52.516;13.460;2023-02-11T08:45:53;4.80;99.90
32502;DHT22;18952;52.516;13.460;2023-02-11T08:48:20;4.80;99.90
32502;DHT22;18952;52.516;13.460;2023-02-11T08:50:47;4.80;99.90
32502;DHT22;18952;52.516;13.460;2023-02-11T08:53:13;4.80;99.90
32502;DHT22;18952;52.516;13.460;2023-02-11T08:55:47;4.80;99.90
32502;DHT22;18952;52.516;13.460;2023-02-11T08:58:14;4.90;99.90
32502;DHT22;18952;52.516;13.460;2023-02-11T09:00:45;4.90;99.90
32502;DHT22;18952;52.516;13.460;2023-02-11T09:03:12;4.90;99.90
32502;DHT22;18952;52.516;13.460;2023-02-11T09:05:45;4.90;99.90
32502;DHT22;18952;52.516;13.460;2023-02-11T09:08:12;4.90;99.90
32502;DHT22;18952;52.516;13.460;2023-02-11T09:10:39;4.90;99.90
32502;DHT22;18952;52.516;13.460;2023-02-11T09:13:06;4.80;99.90
32502;DHT22;18952;52.516;13.460;2023-02-11T09:15:33;4.90;99.90
32502;DHT22;18952;52.516;13.460;2023-02-11T09:17:59;4.90;99.90
32502;DHT22;18952;52.516;13.460;2023-02-11T09:20:26;4.90;99.90
32502;DHT22;18952;52.516;13.460;2023-02-11T09:22:55;4.90;99.90
32502;DHT22;18952;52.516;13.460;2023-02-11T09:25:22;5.00;99.90
32502;DHT22;18952;52.516;13.460;2023-02-11T09:27:49;5.00;99.90
32502;DHT22;18952;52.516;13.460;2023-02-11T09:30:16;5.00;99.90
32502;DHT22;18952;52.516;13.460;2023-02-11T09:32:43;5.00;99.90
32502;DHT22;18952;52.516;13.460;2023-02-11T09:35:10;5.00;99.90
32502;DHT22;18952;52.516;13.460;2023-02-11T09:37:36;5.10;99.90
32502;DHT22;18952;52.516;13.460;2023-02-11T09:40:04;5.10;99.90
32502;DHT22;18952;52.516;13.460;2023-02-11T09:45:28;5.20;99.90
32502;DHT22;18952;52.516;13.460;2023-02-11T09:48:12;5.20;99.90
32502;DHT22;18952;52.516;13.460;2023-02-11T09:50:46;5.20;99.90
32502;DHT22;18952;52.516;13.460;2023-02-11T09:55:52;5.20;99.90
32502;DHT22;18952;52.516;13.460;2023-02-11T09:58:31;5.10;99.90
32502;DHT22;18952;52.516;13.460;2023-02-11T10:06:31;5.20;99.90
32502;DHT22;18952;52.516;13.460;2023-02-11T10:09:21;5.20;99.90
32502;DHT22;18952;52.516;13.460;2023-02-11T10:22:34;5.30;99.90
32502;DHT22;18952;52.516;13.460;2023-02-11T10:27:48;5.30;99.90
32502;DHT22;18952;52.516;13.460;2023-02-11T10:30:33;5.30;99.90
32502;DHT22;18952;52.516;13.460;2023-02-11T10:35:29;5.20;99.90
32502;DHT22;18952;52.516;13.460;2023-02-11T10:37:58;5.20;99.90
32502;DHT22;18952;52.516;13.460;2023-02-11T10:40:27;5.20;99.90
32502;DHT22;18952;52.516;13.460;2023-02-11T10:42:58;5.20;99.90
32502;DHT22;18952;52.516;13.460;2023-02-11T10:45:31;5.20;99.90
32502;DHT22;18952;52.516;13.460;2023-02-11T10:48:00;5.20;99.90
32502;DHT22;18952;52.516;13.460;2023-02-11T10:50:31;5.30;99.90
32502;DHT22;18952;52.516;13.460;2023-02-11T10:53:19;5.30;99.90
32502;DHT22;18952;52.516;13.460;2023-02-11T10:55:53;5.30;99.90
32502;DHT22;18952;52.516;13.460;2023-02-11T10:58:36;5.30;99.90
32502;DHT22;18952;52.516;13.460;2023-02-11T11:01:09;5.30;99.90
32502;DHT22;18952;52.516;13.460;2023-02-11T11:03:51;5.40;99.90
32502;DHT22;18952;52.516;13.460;2023-02-11T11:06:31;5.40;99.90
32502;DHT22;18952;52.516;13.460;2023-02-11T11:08:58;5.30;99.90
32502;DHT22;18952;52.516;13.460;2023-02-11T11:11:27;5.40;99.90
32502;DHT22;18952;52.516;13.460;2023-02-11T11:13:59;5.40;99.90
32502;DHT22;18952;52.516;13.460;2023-02-11T11:16:33;5.40;99.90
32502;DHT22;18952;52.516;13.460;2023-02-11T11:21:40;5.40;99.90
32502;DHT22;18952;52.516;13.460;2023-02-11T11:24:17;5.40;99.90
32502;DHT22;18952;52.516;13.460;2023-02-11T11:26:49;5.30;99.90
32502;DHT22;18952;52.516;13.460;2023-02-11T11:29:42;5.30;99.90
32502;DHT22;18952;52.516;13.460;2023-02-11T11:32:10;5.30;99.90
32502;DHT22;18952;52.516;13.460;2023-02-11T11:34:42;5.30;99.90
32502;DHT22;18952;52.516;13.460;2023-02-11T11:42:35;5.40;99.90
32502;DHT22;18952;52.516;13.460;2023-02-11T11:48:03;5.30;99.90
32502;DHT22;18952;52.516;13.460;2023-02-11T11:50:40;5.40;99.90
32502;DHT22;18952;52.516;13.460;2023-02-11T11:53:14;5.40;99.90
32502;DHT22;18952;52.516;13.460;2023-02-11T11:56:04;5.40;99.90
32502;DHT22;18952;52.516;13.460;2023-02-11T11:58:31;5.50;99.90
32502;DHT22;18952;52.516;13.460;2023-02-11T12:06:56;5.50;99.90
32502;DHT22;18952;52.516;13.460;2023-02-11T12:27:04;5.70;99.90
32502;DHT22;18952;52.516;13.460;2023-02-11T12:32:38;5.70;99.90
32502;DHT22;18952;52.516;13.460;2023-02-11T12:35:27;5.80;99.90
32502;DHT22;18952;52.516;13.460;2023-02-11T12:43:07;5.80;99.90
32502;DHT22;18952;52.516;13.460;2023-02-11T12:51:54;5.80;99.90
32502;DHT22;18952;52.516;13.460;2023-02-11T12:54:39;5.80;99.90
32502;DHT22;18952;52.516;13.460;2023-02-11T12:57:27;5.80;99.90
32502;DHT22;18952;52.516;13.460;2023-02-11T13:00:15;5.90;99.90
32502;DHT22;18952;52.516;13.460;2023-02-11T13:08:16;5.90;99.90
32502;DHT22;18952;52.516;13.460;2023-02-11T13:10:51;6.00;99.90
32502;DHT22;18952;52.516;13.460;2023-02-11T13:21:49;5.90;99.90
32502;DHT22;18952;52.516;13.460;2023-02-11T13:27:06;6.00;99.90
32502;DHT22;18952;52.516;13.460;2023-02-11T13:35:38;6.10;99.90
32502;DHT22;18952;52.516;13.460;2023-02-11T13:38:24;6.00;99.90
32502;DHT22;18952;52.516;13.460;2023-02-11T13:41:22;6.10;99.90
32502;DHT22;18952;52.516;13.460;2023-02-11T13:46:49;6.10;99.90
32502;DHT22;18952;52.516;13.460;2023-02-11T13:49:20;6.10;99.90
32502;DHT22;18952;52.516;13.460;2023-02-11T13:51:48;6.10;99.90
32502;DHT22;18952;52.516;13.460;2023-02-11T13:57:24;6.10;99.90
32502;DHT22;18952;52.516;13.460;2023-02-11T13:59:53;6.10;99.90
32502;DHT22;18952;52.516;13.460;2023-02-11T14:02:31;6.10;99.90
32502;DHT22;18952;52.516;13.460;2023-02-11T14:07:31;6.10;99.90
32502;DHT22;18952;52.516;13.460;2023-02-11T14:09:58;6.10;99.90
32502;DHT22;18952;52.516;13.460;2023-02-11T14:12:31;6.10;99.90
32502;DHT22;18952;52.516;13.460;2023-02-11T14:15:00;6.10;99.90
32502;DHT22;18952;52.516;13.460;2023-02-11T14:17:32;6.10;99.90
32502;DHT22;18952;52.516;13.460;2023-02-11T14:20:01;6.10;99.90
32502;DHT22;18952;52.516;13.460;2023-02-11T14:22:48;6.10;99.90
32502;DHT22;18952;52.516;13.460;2023-02-11T14:25:22;6.10;99.90
32502;DHT22;18952;52.516;13.460;2023-02-11T14:28:17;6.10;99.90
32502;DHT22;18952;52.516;13.460;2023-02-11T14:31:02;6.10;99.90
32502;DHT22;18952;52.516;13.460;2023-02-11T14:33:55;6.10;99.90
32502;DHT22;18952;52.516;13.460;2023-02-11T14:42:00;6.10;99.90
32502;DHT22;18952;52.516;13.460;2023-02-11T14:44:30;6.10;99.90
32502;DHT22;18952;52.516;13.460;2023-02-11T14:46:58;6.00;99.90
32502;DHT22;18952;52.516;13.460;2023-02-11T14:49:28;6.10;99.90
32502;DHT22;18952;52.516;13.460;2023-02-11T14:52:05;6.10;99.90
32502;DHT22;18952;52.516;13.460;2023-02-11T14:54:33;6.10;99.90
32502;DHT22;18952;52.516;13.460;2023-02-11T14:57:21;6.10;99.90
32502;DHT22;18952;52.516;13.460;2023-02-11T14:59:58;6.10;99.90
32502;DHT22;18952;52.516;13.460;2023-02-11T15:02:33;6.10;99.90
32502;DHT22;18952;52.516;13.460;2023-02-11T15:05:24;6.10;99.90
32502;DHT22;18952;52.516;13.460;2023-02-11T15:07:55;6.20;99.90
32502;DHT22;18952;52.516;13.460;2023-02-11T15:10:34;6.10;99.90
32502;DHT22;18952;52.516;13.460;2023-02-11T15:13:02;6.10;99.90
32502;DHT22;18952;52.516;13.460;2023-02-11T15:15:31;6.10;99.90
32502;DHT22;18952;52.516;13.460;2023-02-11T15:18:00;6.20;99.90
32502;DHT22;18952;52.516;13.460;2023-02-11T15:20:30;6.20;99.90
32502;DHT22;18952;52.516;13.460;2023-02-11T15:23:01;6.20;99.90
32502;DHT22;18952;52.516;13.460;2023-02-11T15:25:28;6.20;99.90
32502;DHT22;18952;52.516;13.460;2023-02-11T15:27:59;6.20;99.90
32502;DHT22;18952;52.516;13.460;2023-02-11T15:30:30;6.20;99.90
32502;DHT22;18952;52.516;13.460;2023-02-11T15:32:59;6.20;99.90
32502;DHT22;18952;52.516;13.460;2023-02-11T15:35:35;6.20;99.90
32502;DHT22;18952;52.516;13.460;2023-02-11T15:38:03;6.20;99.90
32502;DHT22;18952;52.516;13.460;2023-02-11T15:40:33;6.20;99.90
32502;DHT22;18952;52.516;13.460;2023-02-11T15:43:02;6.20;99.90
32502;DHT22;18952;52.516;13.460;2023-02-11T15:45:42;6.20;99.90
32502;DHT22;18952;52.516;13.460;2023-02-11T15:48:15;6.20;99.90
32502;DHT22;18952;52.516;13.460;2023-02-11T15:50:49;6.20;99.90
32502;DHT22;18952;52.516;13.460;2023-02-11T15:58:39;6.20;99.90
32502;DHT22;18952;52.516;13.460;2023-02-11T16:01:09;6.20;99.90
32502;DHT22;18952;52.516;13.460;2023-02-11T16:03:36;6.10;99.90
32502;DHT22;18952;52.516;13.460;2023-02-11T16:06:23;6.10;99.90
32502;DHT22;18952;52.516;13.460;2023-02-11T16:11:31;6.10;99.90
32502;DHT22;18952;52.516;13.460;2023-02-11T16:13:59;6.10;99.90
32502;DHT22;18952;52.516;13.460;2023-02-11T16:16:33;6.10;99.90
32502;DHT22;18952;52.516;13.460;2023-02-11T16:19:01;6.10;99.90
32502;DHT22;18952;52.516;13.460;2023-02-11T16:21:36;6.10;99.90
32502;DHT22;18952;52.516;13.460;2023-02-11T16:24:13;6.10;99.90
32502;DHT22;18952;52.516;13.460;2023-02-11T16:26:52;6.10;99.90
32502;DHT22;18952;52.516;13.460;2023-02-11T16:29:27;6.10;99.90
32502;DHT22;18952;52.516;13.460;2023-02-11T16:32:09;6.10;99.90
32502;DHT22;18952;52.516;13.460;2023-02-11T16:34:41;6.10;99.90
32502;DHT22;18952;52.516;13.460;2023-02-11T16:37:07;6.10;99.90
32502;DHT22;18952;52.516;13.460;2023-02-11T16:39:34;6.10;99.90
32502;DHT22;18952;52.516;13.460;2023-02-11T16:42:02;6.10;99.90
32502;DHT22;18952;52.516;13.460;2023-02-11T16:44:33;6.10;99.90
32502;DHT22;18952;52.516;13.460;2023-02-11T16:47:01;6.10;99.90
32502;DHT22;18952;52.516;13.460;2023-02-11T16:49:34;6.20;99.90
32502;DHT22;18952;52.516;13.460;2023-02-11T16:52:05;6.10;99.90
32502;DHT22;18952;52.516;13.460;2023-02-11T16:54:33;6.20;99.90
32502;DHT22;18952;52.516;13.460;2023-02-11T16:57:00;6.20;99.90
32502;DHT22;18952;52.516;13.460;2023-02-11T16:59:28;6.20;99.90
32502;DHT22;18952;52.516;13.460;2023-02-11T17:01:54;6.10;99.90
32502;DHT22;18952;52.516;13.460;2023-02-11T17:04:29;6.10;99.90
32502;DHT22;18952;52.516;13.460;2023-02-11T17:06:56;6.10;99.90
32502;DHT22;18952;52.516;13.460;2023-02-11T17:09:26;6.20;99.90
32502;DHT22;18952;52.516;13.460;2023-02-11T17:11:56;6.20;99.90
32502;DHT22;18952;52.516;13.460;2023-02-11T17:14:23;6.20;99.90
32502;DHT22;18952;52.516;13.460;2023-02-11T17:16:49;6.20;99.90
32502;DHT22;18952;52.516;13.460;2023-02-11T17:19:18;6.20;99.90
32502;DHT22;18952;52.516;13.460;2023-02-11T17:21:50;6.20;99.90
32502;DHT22;18952;52.516;13.460;2023-02-11T17:24:20;6.20;99.90
32502;DHT22;18952;52.516;13.460;2023-02-11T17:26:47;6.20;99.90
32502;DHT22;18952;52.516;13.460;2023-02-11T17:29:17;6.20;99.90
32502;DHT22;18952;52.516;13.460;2023-02-11T17:31:44;6.20;99.90
32502;DHT22;18952;52.516;13.460;2023-02-11T17:34:11;6.20;99.90
32502;DHT22;18952;52.516;13.460;2023-02-11T17:36:38;6.20;99.90
32502;DHT22;18952;52.516;13.460;2023-02-11T17:39:05;6.20;99.90
32502;DHT22;18952;52.516;13.460;2023-02-11T17:41:35;6.20;99.90
32502;DHT22;18952;52.516;13.460;2023-02-11T17:44:01;6.30;99.90
32502;DHT22;18952;52.516;13.460;2023-02-11T17:46:28;6.30;99.90
32502;DHT22;18952;52.516;13.460;2023-02-11T17:48:57;6.30;99.90
32502;DHT22;18952;52.516;13.460;2023-02-11T17:51:30;6.30;99.90
32502;DHT22;18952;52.516;13.460;2023-02-11T17:54:01;6.30;99.90
32502;DHT22;18952;52.516;13.460;2023-02-11T17:56:31;6.30;99.90
32502;DHT22;18952;52.516;13.460;2023-02-11T17:58:57;6.30;99.90
32502;DHT22;18952;52.516;13.460;2023-02-11T18:01:32;6.30;99.90
32502;DHT22;18952;52.516;13.460;2023-02-11T18:03:59;6.30;99.90
32502;DHT22;18952;52.516;13.460;2023-02-11T18:06:26;6.40;99.90
32502;DHT22;18952;52.516;13.460;2023-02-11T18:08:54;6.40;99.90
32502;DHT22;18952;52.516;13.460;2023-02-11T18:11:23;6.30;99.90
32502;DHT22;18952;52.516;13.460;2023-02-11T18:13:50;6.30;99.90
32502;DHT22;18952;52.516;13.460;2023-02-11T18:16:17;6.40;99.90